createdAt,value
2022-10-03T00:00:58.447Z,15.20
2022-10-03T00:03:36.874Z,15.20
2022-10-03T00:06:12.335Z,15.10
2022-10-03T00:09:30.953Z,15.00
2022-10-03T00:12:08.835Z,14.90
2022-10-03T00:14:44.424Z,14.80
2022-10-03T00:17:17.983Z,14.70
2022-10-03T00:19:53.159Z,14.60
2022-10-03T00:22:30.167Z,14.60
2022-10-03T00:25:08.379Z,14.50
2022-10-03T00:27:40.151Z,14.40
2022-10-03T00:30:18.337Z,14.30
2022-10-03T00:33:05.605Z,14.20
2022-10-03T00:35:53.996Z,14.00
2022-10-03T00:38:42.088Z,13.90
2022-10-03T00:41:41.561Z,13.80
2022-10-03T00:44:43.624Z,13.80
2022-10-03T00:47:48.293Z,13.70
2022-10-03T00:50:48.260Z,13.80
2022-10-03T00:53:38.992Z,13.80
2022-10-03T00:56:41.862Z,13.70
2022-10-03T00:59:19.451Z,13.80
2022-10-03T01:01:49.410Z,13.80
2022-10-03T01:04:38.945Z,13.80
2022-10-03T01:07:23.065Z,13.80
2022-10-03T01:10:02.126Z,13.90
2022-10-03T01:12:54.736Z,14.00
2022-10-03T01:15:32.038Z,14.00
2022-10-03T01:18:10.887Z,13.90
2022-10-03T01:20:47.190Z,13.80
2022-10-03T01:23:43.823Z,13.70
2022-10-03T01:26:24.509Z,13.70
2022-10-03T01:29:13.915Z,13.60
2022-10-03T01:31:47.571Z,13.60
2022-10-03T01:34:23.462Z,13.50
2022-10-03T01:37:02.990Z,13.50
2022-10-03T01:39:36.330Z,13.40
2022-10-03T01:42:10.177Z,13.40
2022-10-03T01:44:54.120Z,13.30
2022-10-03T01:47:27.314Z,13.30
2022-10-03T01:49:59.486Z,13.30
2022-10-03T01:52:38.426Z,13.30
2022-10-03T01:55:13.759Z,13.30
2022-10-03T01:57:48.707Z,13.20
2022-10-03T02:00:20.225Z,13.10
2022-10-03T02:02:52.531Z,13.10
2022-10-03T02:05:27.767Z,13.10
2022-10-03T02:08:00.026Z,13.10
2022-10-03T02:10:36.636Z,13.10
2022-10-03T02:13:10.714Z,13.00
2022-10-03T02:15:54.574Z,13.10
2022-10-03T02:18:31.223Z,13.10
2022-10-03T02:21:10.244Z,13.00
2022-10-03T02:23:41.871Z,13.00
2022-10-03T02:26:29.639Z,13.00
2022-10-03T02:29:11.656Z,13.00
2022-10-03T02:32:21.611Z,13.00
2022-10-03T02:35:18.337Z,13.10
2022-10-03T02:38:11.038Z,13.20
2022-10-03T02:41:05.509Z,13.30
2022-10-03T02:44:03.730Z,13.20
2022-10-03T02:47:22.740Z,13.30
2022-10-03T02:50:39.039Z,13.30
2022-10-03T02:53:35.844Z,13.20
2022-10-03T02:56:44.026Z,13.10
2022-10-03T02:59:56.330Z,13.10
2022-10-03T03:02:55.626Z,13.00
2022-10-03T03:05:34.376Z,13.00
2022-10-03T03:08:41.272Z,13.00
2022-10-03T03:11:26.096Z,13.00
2022-10-03T03:14:19.490Z,13.00
2022-10-03T03:17:02.652Z,12.90
2022-10-03T03:20:02.469Z,12.90
2022-10-03T03:22:45.765Z,12.80
2022-10-03T03:25:25.662Z,12.80
2022-10-03T03:28:03.575Z,12.70
2022-10-03T03:30:37.296Z,12.70
2022-10-03T03:33:12.490Z,12.70
2022-10-03T03:35:51.815Z,12.60
2022-10-03T03:38:29.991Z,12.60
2022-10-03T03:41:13.468Z,12.60
2022-10-03T03:44:14.409Z,12.60
2022-10-03T03:46:53.618Z,12.60
2022-10-03T03:49:32.330Z,12.50
2022-10-03T03:52:16.266Z,12.50
2022-10-03T03:55:09.277Z,12.60
2022-10-03T03:58:09.348Z,12.60
2022-10-03T04:00:49.819Z,12.60
2022-10-03T04:03:31.380Z,12.70
2022-10-03T04:06:25.683Z,12.90
2022-10-03T04:09:12.950Z,13.10
2022-10-03T04:11:54.000Z,13.30
2022-10-03T04:14:50.100Z,13.40
2022-10-03T04:17:49.808Z,13.50
2022-10-03T04:20:31.359Z,13.50
2022-10-03T04:23:22.995Z,13.50
2022-10-03T04:26:02.540Z,13.40
2022-10-03T04:28:46.505Z,13.40
2022-10-03T04:31:30.714Z,13.40
2022-10-03T04:34:12.123Z,13.30
2022-10-03T04:37:02.871Z,13.30
2022-10-03T04:39:37.328Z,13.30
2022-10-03T04:42:14.731Z,13.30
2022-10-03T04:44:52.355Z,13.40
2022-10-03T04:47:26.442Z,13.40
2022-10-03T04:49:59.532Z,13.30
2022-10-03T04:52:33.525Z,13.40
2022-10-03T04:55:07.244Z,13.40
2022-10-03T04:57:46.144Z,13.50
2022-10-03T05:00:23.532Z,13.60
2022-10-03T05:02:59.898Z,13.60
2022-10-03T05:05:49.967Z,13.60
2022-10-03T05:08:31.272Z,13.70
2022-10-03T05:11:09.079Z,13.70
2022-10-03T05:13:56.029Z,13.70
2022-10-03T05:16:31.755Z,13.80
2022-10-03T05:19:11.627Z,14.00
2022-10-03T05:21:45.290Z,14.10
2022-10-03T05:24:20.731Z,13.80
2022-10-03T05:26:54.885Z,13.30
2022-10-03T05:29:32.205Z,12.80
2022-10-03T05:32:12.026Z,12.40
2022-10-03T05:35:02.031Z,12.10
2022-10-03T05:37:56.222Z,11.90
2022-10-03T05:40:26.289Z,11.60
2022-10-03T05:43:03.837Z,11.20
2022-10-03T05:45:48.500Z,10.90
2022-10-03T05:48:29.274Z,11.00
2022-10-03T05:51:18.630Z,11.10
2022-10-03T05:54:40.935Z,10.80
2022-10-03T05:57:26.815Z,11.00
2022-10-03T06:00:07.933Z,10.90
2022-10-03T06:03:17.509Z,10.90
2022-10-03T06:05:56.662Z,10.80
2022-10-03T06:08:51.538Z,10.80
2022-10-03T06:11:32.117Z,10.80
2022-10-03T06:14:27.196Z,10.80
2022-10-03T06:17:04.143Z,10.80
2022-10-03T06:19:41.820Z,10.80
2022-10-03T06:22:39.374Z,10.80
2022-10-03T06:25:35.855Z,10.90
2022-10-03T06:28:52.611Z,10.90
2022-10-03T06:32:09.716Z,10.90
2022-10-03T06:35:04.784Z,11.00
2022-10-03T06:37:59.322Z,11.00
2022-10-03T06:41:01.098Z,11.10
2022-10-03T06:44:02.681Z,11.20
2022-10-03T06:46:55.284Z,11.10
2022-10-03T06:49:44.188Z,11.20
2022-10-03T06:52:28.487Z,11.20
2022-10-03T06:55:30.309Z,11.10
2022-10-03T06:58:24.367Z,11.10
2022-10-03T07:01:02.733Z,11.20
2022-10-03T07:03:48.238Z,11.20
2022-10-03T07:06:48.836Z,11.20
2022-10-03T07:10:01.052Z,11.20
2022-10-03T07:13:00.694Z,11.20
2022-10-03T07:16:13.948Z,11.30
2022-10-03T07:19:10.207Z,11.20
2022-10-03T07:22:02.948Z,11.00
2022-10-03T07:25:18.476Z,11.10
2022-10-03T07:28:02.691Z,11.10
2022-10-03T07:30:46.570Z,11.20
2022-10-03T07:33:41.479Z,11.10
2022-10-03T07:36:43.890Z,11.20
2022-10-03T07:39:54.328Z,11.30
2022-10-03T07:42:56.459Z,11.30
2022-10-03T07:45:42.754Z,11.50
2022-10-03T07:48:30.590Z,11.50
2022-10-03T07:51:24.065Z,11.60
2022-10-03T07:54:21.085Z,11.70
2022-10-03T07:57:00.646Z,11.70
2022-10-03T08:00:24.619Z,11.70
2022-10-03T08:03:32.367Z,11.70
2022-10-03T08:06:21.136Z,11.70
2022-10-03T08:09:18.870Z,11.80
2022-10-03T08:12:23.987Z,11.80
2022-10-03T08:15:03.429Z,12.00
2022-10-03T08:18:02.167Z,12.10
2022-10-03T08:20:55.594Z,12.20
2022-10-03T08:23:47.135Z,12.30
2022-10-03T08:26:20.715Z,12.30
2022-10-03T08:29:12.863Z,12.40
2022-10-03T08:32:05.461Z,12.40
2022-10-03T08:35:14.175Z,12.40
2022-10-03T08:38:16.235Z,12.50
2022-10-03T08:41:21.131Z,12.60
2022-10-03T08:44:18.454Z,12.70
2022-10-03T08:47:27.853Z,12.90
2022-10-03T08:50:47.697Z,13.10
2022-10-03T08:53:56.466Z,13.30
2022-10-03T08:56:29.054Z,13.50
2022-10-03T08:59:27.610Z,13.60
2022-10-03T09:02:37.526Z,13.80
2022-10-03T09:05:58.833Z,14.20
2022-10-03T09:08:59.221Z,14.60
2022-10-03T09:12:06.387Z,14.90
2022-10-03T09:14:51.534Z,15.20
2022-10-03T09:17:44.498Z,15.50
2022-10-03T09:20:51.171Z,15.90
2022-10-03T09:23:42.900Z,16.20
2022-10-03T09:26:56.972Z,16.50
2022-10-03T09:29:55.307Z,16.70
2022-10-03T09:33:03.822Z,16.80
2022-10-03T09:35:50.977Z,16.90
2022-10-03T09:39:11.389Z,17.00
2022-10-03T09:42:02.664Z,17.10
2022-10-03T09:44:41.138Z,17.10
2022-10-03T09:47:37.721Z,17.20
2022-10-03T09:50:53.032Z,17.20
2022-10-03T09:53:53.133Z,17.30
2022-10-03T09:56:53.659Z,17.40
2022-10-03T09:59:53.080Z,17.50
2022-10-03T10:02:50.997Z,17.50
2022-10-03T10:05:44.130Z,17.50
2022-10-03T10:08:37.120Z,17.60
2022-10-03T10:11:14.323Z,17.60
2022-10-03T10:14:21.984Z,17.70
2022-10-03T10:17:40.267Z,17.80
2022-10-03T10:20:18.272Z,17.80
2022-10-03T10:23:10.450Z,17.90
2022-10-03T10:26:09.812Z,18.00
2022-10-03T10:29:08.958Z,18.00
2022-10-03T10:32:19.109Z,18.20
2022-10-03T10:35:28.818Z,18.30
2022-10-03T10:38:14.359Z,18.40
2022-10-03T10:41:18.247Z,18.50
2022-10-03T10:44:34.447Z,18.50
2022-10-03T10:47:40.953Z,18.40
2022-10-03T10:50:43.482Z,18.30
2022-10-03T10:54:09.001Z,18.20
2022-10-03T10:57:07.895Z,18.20
2022-10-03T11:00:16.668Z,18.20
2022-10-03T11:03:37.531Z,18.40
2022-10-03T11:06:39.750Z,18.50
2022-10-03T11:09:30.045Z,18.40
2022-10-03T11:12:38.820Z,18.40
2022-10-03T11:15:36.143Z,18.50
2022-10-03T11:18:44.534Z,18.50
2022-10-03T11:21:54.556Z,18.50
2022-10-03T11:25:04.078Z,18.50
2022-10-03T11:28:07.022Z,18.50
2022-10-03T11:31:11.741Z,18.50
2022-10-03T11:34:31.990Z,18.40
2022-10-03T11:37:15.000Z,18.30
2022-10-03T11:39:49.181Z,18.20
2022-10-03T11:42:29.706Z,18.10
2022-10-03T11:45:00.157Z,18.00
2022-10-03T11:47:47.222Z,17.90
2022-10-03T11:50:29.491Z,17.80
2022-10-03T11:53:11.976Z,17.70
2022-10-03T11:55:44.417Z,17.70
2022-10-03T11:58:25.462Z,17.60
2022-10-03T12:01:00.338Z,17.70
2022-10-03T12:03:30.380Z,17.80
2022-10-03T12:06:15.425Z,17.90
2022-10-03T12:08:55.827Z,18.00
2022-10-03T12:11:28.558Z,18.00
2022-10-03T12:14:16.767Z,18.10
2022-10-03T12:16:57.852Z,18.20
2022-10-03T12:19:31.232Z,18.20
2022-10-03T12:22:04.502Z,18.10
2022-10-03T12:24:35.566Z,17.90
2022-10-03T12:27:12.581Z,17.80
2022-10-03T12:29:45.967Z,17.70
2022-10-03T12:32:19.559Z,17.60
2022-10-03T12:34:53.325Z,17.50
2022-10-03T12:37:32.829Z,17.40
2022-10-03T12:40:06.175Z,17.40
2022-10-03T12:42:42.334Z,17.30
2022-10-03T12:45:17.463Z,17.30
2022-10-03T12:47:59.094Z,17.30
2022-10-03T12:50:43.220Z,17.30
2022-10-03T12:53:33.098Z,17.20
2022-10-03T12:56:08.389Z,17.20
2022-10-03T12:58:46.586Z,17.10
2022-10-03T13:01:28.473Z,17.10
2022-10-03T13:04:01.330Z,17.00
2022-10-03T13:07:04.036Z,17.00
2022-10-03T13:09:57.455Z,17.00
2022-10-03T13:12:35.594Z,16.90
2022-10-03T13:15:42.977Z,17.00
2022-10-03T13:18:20.771Z,17.00
2022-10-03T13:20:57.029Z,16.90
2022-10-03T13:23:32.759Z,16.90
2022-10-03T13:26:13.677Z,16.90
2022-10-03T13:29:13.338Z,16.90
2022-10-03T13:32:05.544Z,17.00
2022-10-03T13:34:47.550Z,17.10
2022-10-03T13:37:19.377Z,17.00
2022-10-03T13:39:49.766Z,17.10
2022-10-03T13:42:21.629Z,17.10
2022-10-03T13:44:54.561Z,17.00
2022-10-03T13:47:47.188Z,17.00
2022-10-03T13:50:20.005Z,17.00
2022-10-03T13:52:53.138Z,16.90
2022-10-03T13:55:35.256Z,16.90
2022-10-03T13:58:26.206Z,16.80
2022-10-03T14:01:13.734Z,16.80
2022-10-03T14:03:52.643Z,16.80
2022-10-03T14:06:27.124Z,16.80
2022-10-03T14:09:16.653Z,16.80
2022-10-03T14:11:48.958Z,16.70
2022-10-03T14:14:56.048Z,16.60
2022-10-03T14:17:31.575Z,16.60
2022-10-03T14:20:11.538Z,16.60
2022-10-03T14:22:51.623Z,16.60
2022-10-03T14:25:24.361Z,16.60
2022-10-03T14:27:55.278Z,16.60
2022-10-03T14:30:24.822Z,16.60
2022-10-03T14:33:18.322Z,16.50
2022-10-03T14:36:00.996Z,16.50
2022-10-03T14:39:01.967Z,16.50
2022-10-03T14:41:42.423Z,16.50
2022-10-03T14:44:13.768Z,16.50
2022-10-03T14:46:47.473Z,16.40
2022-10-03T14:49:51.068Z,16.50
2022-10-03T14:52:22.526Z,16.50
2022-10-03T14:54:53.338Z,16.70
2022-10-03T14:57:30.026Z,16.80
2022-10-03T14:59:58.655Z,16.80
2022-10-03T15:02:30.817Z,16.80
2022-10-03T15:05:06.306Z,16.80
2022-10-03T15:07:36.929Z,16.80
2022-10-03T15:10:09.569Z,16.80
2022-10-03T15:12:39.606Z,16.80
2022-10-03T15:15:12.135Z,16.80
2022-10-03T15:17:46.300Z,16.90
2022-10-03T15:20:18.089Z,16.90
2022-10-03T15:22:50.367Z,16.90
2022-10-03T15:25:24.649Z,16.80
2022-10-03T15:27:55.496Z,16.80
2022-10-03T15:30:30.696Z,16.80
2022-10-03T15:33:08.110Z,16.80
2022-10-03T15:35:39.196Z,16.70
2022-10-03T15:38:12.700Z,16.60
2022-10-03T15:40:46.903Z,16.60
2022-10-03T15:43:29.484Z,16.60
2022-10-03T15:45:58.709Z,16.90
2022-10-03T15:48:30.544Z,17.00
2022-10-03T15:50:59.515Z,17.00
2022-10-03T15:53:36.552Z,16.90
2022-10-03T15:56:15.231Z,16.80
2022-10-03T15:58:48.473Z,16.70
2022-10-03T16:01:20.938Z,16.60
2022-10-03T16:03:52.524Z,16.50
2022-10-03T16:06:22.640Z,16.40
2022-10-03T16:08:58.092Z,16.30
2022-10-03T16:11:29.319Z,16.20
2022-10-03T16:14:12.018Z,16.20
2022-10-03T16:16:43.322Z,16.10
2022-10-03T16:19:25.874Z,16.00
2022-10-03T16:21:57.512Z,15.90
2022-10-03T16:24:32.898Z,15.80
2022-10-03T16:27:15.547Z,15.70
2022-10-03T16:29:49.941Z,15.70
2022-10-03T16:32:20.096Z,15.60
2022-10-03T16:34:49.154Z,15.50
2022-10-03T16:37:20.452Z,15.50
2022-10-03T16:39:55.047Z,15.30
2022-10-03T16:42:28.920Z,15.20
2022-10-03T16:45:01.598Z,15.10
2022-10-03T16:47:35.286Z,15.00
2022-10-03T16:50:22.059Z,14.90
2022-10-03T16:52:53.198Z,14.80
2022-10-03T16:55:26.351Z,14.50
2022-10-03T16:57:58.017Z,14.50
2022-10-03T17:00:30.748Z,14.40
2022-10-03T17:02:59.386Z,14.40
2022-10-03T17:05:28.352Z,14.20
2022-10-03T17:08:18.150Z,14.20
2022-10-03T17:10:55.843Z,14.10
2022-10-03T17:13:29.417Z,14.10
2022-10-03T17:16:02.685Z,14.10
2022-10-03T17:18:36.248Z,14.00
2022-10-03T17:21:09.600Z,13.90
2022-10-03T17:23:40.894Z,13.80
2022-10-03T17:26:11.958Z,13.80
2022-10-03T17:28:45.666Z,13.70
2022-10-03T17:31:30.670Z,13.70
2022-10-03T17:34:05.246Z,13.60
2022-10-03T17:37:07.083Z,13.60
2022-10-03T17:40:05.369Z,13.50
2022-10-03T17:42:39.559Z,13.50
2022-10-03T17:45:34.522Z,13.40
2022-10-03T17:48:12.160Z,13.40
2022-10-03T17:50:53.465Z,13.30
2022-10-03T17:53:23.558Z,13.20
2022-10-03T17:55:55.585Z,13.20
2022-10-03T17:58:26.088Z,13.20
2022-10-03T18:01:04.102Z,13.10
2022-10-03T18:03:36.288Z,13.00
2022-10-03T18:06:36.232Z,13.00
2022-10-03T18:09:11.572Z,12.90
2022-10-03T18:11:42.299Z,12.80
2022-10-03T18:14:17.050Z,12.80
2022-10-03T18:16:48.943Z,12.70
2022-10-03T18:19:26.703Z,12.70
2022-10-03T18:22:09.100Z,12.60
2022-10-03T18:24:49.321Z,12.60
2022-10-03T18:27:51.499Z,12.50
2022-10-03T18:30:22.023Z,12.50
2022-10-03T18:32:52.723Z,12.40
2022-10-03T18:35:23.600Z,12.40
2022-10-03T18:38:02.083Z,12.40
2022-10-03T18:40:33.910Z,12.30
2022-10-03T18:43:02.482Z,12.30
2022-10-03T18:45:32.578Z,12.20
2022-10-03T18:48:08.130Z,12.20
2022-10-03T18:50:45.571Z,12.20
2022-10-03T18:53:19.020Z,12.20
2022-10-03T18:55:51.036Z,12.20
2022-10-03T18:58:25.157Z,12.10
2022-10-03T19:00:57.796Z,12.10
2022-10-03T19:03:32.912Z,12.10
2022-10-03T19:06:05.330Z,12.10
2022-10-03T19:08:38.413Z,12.10
2022-10-03T19:11:14.982Z,12.00
2022-10-03T19:13:49.425Z,12.00
2022-10-03T19:16:43.252Z,12.00
2022-10-03T19:19:18.132Z,12.00
2022-10-03T19:21:47.911Z,12.00
2022-10-03T19:24:34.463Z,12.00
2022-10-03T19:27:13.527Z,12.10
2022-10-03T19:29:45.384Z,12.10
2022-10-03T19:32:20.395Z,12.10
2022-10-03T19:34:51.102Z,12.00
2022-10-03T19:37:26.562Z,12.00
2022-10-03T19:39:55.119Z,12.00
2022-10-03T19:42:29.125Z,11.90
2022-10-03T19:44:58.307Z,11.90
2022-10-03T19:47:31.339Z,11.90
2022-10-03T19:50:18.503Z,11.90
2022-10-03T19:52:47.122Z,11.90
2022-10-03T19:55:18.302Z,11.90
2022-10-03T19:57:50.238Z,11.90
2022-10-03T20:00:30.627Z,11.90
2022-10-03T20:03:07.539Z,11.90
2022-10-03T20:05:44.560Z,11.80
2022-10-03T20:08:25.814Z,11.60
2022-10-03T20:11:07.868Z,11.50
2022-10-03T20:13:36.405Z,11.40
2022-10-03T20:16:06.429Z,11.30
2022-10-03T20:18:35.791Z,11.30
2022-10-03T20:21:11.186Z,11.20
2022-10-03T20:23:42.296Z,11.20
2022-10-03T20:26:18.106Z,11.10
2022-10-03T20:29:18.190Z,10.90
2022-10-03T20:31:47.386Z,10.80
2022-10-03T20:34:17.967Z,10.80
2022-10-03T20:36:50.378Z,10.80
2022-10-03T20:39:20.495Z,10.70
2022-10-03T20:41:59.668Z,10.70
2022-10-03T20:44:50.119Z,10.60
2022-10-03T20:47:27.804Z,10.50
2022-10-03T20:49:59.543Z,10.50
2022-10-03T20:52:29.481Z,10.40
2022-10-03T20:55:00.556Z,10.40
2022-10-03T20:57:31.528Z,10.30
2022-10-03T21:00:09.057Z,10.30
2022-10-03T21:02:42.602Z,10.20
2022-10-03T21:05:18.919Z,10.60
2022-10-03T21:07:51.692Z,11.40
2022-10-03T21:10:26.403Z,11.70
2022-10-03T21:12:57.308Z,12.00
2022-10-03T21:15:35.331Z,11.80
2022-10-03T21:18:04.413Z,12.10
2022-10-03T21:20:36.933Z,12.30
2022-10-03T21:23:15.744Z,12.30
2022-10-03T21:25:45.128Z,12.30
2022-10-03T21:28:26.001Z,12.10
2022-10-03T21:31:22.786Z,12.10
2022-10-03T21:33:57.974Z,12.30
2022-10-03T21:36:32.055Z,12.40
2022-10-03T21:41:41.643Z,12.50
2022-10-03T21:44:26.461Z,12.60
2022-10-03T21:47:00.663Z,12.70
2022-10-03T21:49:47.691Z,12.80
2022-10-03T21:52:28.270Z,12.80
2022-10-03T21:55:14.753Z,12.70
2022-10-03T21:57:51.945Z,12.70
2022-10-03T22:00:21.839Z,12.60
2022-10-03T22:02:57.843Z,12.60
2022-10-03T22:05:34.773Z,12.70
2022-10-03T22:08:14.950Z,12.70
2022-10-03T22:10:53.769Z,12.80
2022-10-03T22:13:26.360Z,12.70
2022-10-03T22:15:58.096Z,12.80
2022-10-03T22:18:28.978Z,12.70
2022-10-03T22:21:02.878Z,12.60
2022-10-03T22:23:40.907Z,12.70
2022-10-03T22:26:16.402Z,12.80
2022-10-03T22:28:53.077Z,13.00
2022-10-03T22:31:27.133Z,13.00
2022-10-03T22:34:04.499Z,12.90
2022-10-03T22:36:34.653Z,12.80
2022-10-03T22:39:03.187Z,12.90
2022-10-03T22:41:32.104Z,13.00
2022-10-03T22:44:02.746Z,13.00
2022-10-03T22:46:32.813Z,12.90
2022-10-03T22:49:05.639Z,12.80
2022-10-03T22:51:34.623Z,12.70
2022-10-03T22:54:06.767Z,12.60
2022-10-03T22:56:40.985Z,12.40
2022-10-03T22:59:12.016Z,12.40
2022-10-03T23:01:44.595Z,12.60
2022-10-03T23:04:20.907Z,12.70
2022-10-03T23:07:13.875Z,12.70
2022-10-03T23:09:49.035Z,12.50
2022-10-03T23:12:19.319Z,12.40
2022-10-03T23:14:51.490Z,12.30
2022-10-03T23:17:35.122Z,12.20
2022-10-03T23:20:11.200Z,12.30
2022-10-03T23:22:44.131Z,12.30
2022-10-03T23:25:17.818Z,12.30
2022-10-03T23:28:12.302Z,12.30
2022-10-03T23:30:52.353Z,12.40
2022-10-03T23:33:49.713Z,12.60
2022-10-03T23:36:20.595Z,12.50
2022-10-03T23:39:02.703Z,12.50
2022-10-03T23:41:58.944Z,12.60
2022-10-03T23:44:45.675Z,12.70
2022-10-03T23:47:20.695Z,12.70
2022-10-03T23:49:50.206Z,12.60
2022-10-03T23:52:23.511Z,12.60
2022-10-03T23:54:54.001Z,12.50
2022-10-03T23:57:25.361Z,12.50
2022-10-03T23:59:54.039Z,12.40
